sensor_id;sensor_type;location;lat;lon;timestamp;temperature;humidity
52879;DHT22;38747;53.140;6.498;2023-03-20T00:01:19;7.40;99.90
52879;DHT22;38747;53.140;6.498;2023-03-20T00:03:46;7.30;99.90
52879;DHT22;38747;53.140;6.498;2023-03-20T00:06:16;7.30;99.90
52879;DHT22;38747;53.140;6.498;2023-03-20T00:08:43;7.30;99.90
52879;DHT22;38747;53.140;6.498;2023-03-20T00:13:46;7.30;99.90
52879;DHT22;38747;53.140;6.498;2023-03-20T00:16:12;7.30;99.90
52879;DHT22;38747;53.140;6.498;2023-03-20T00:18:37;7.30;99.90
52879;DHT22;38747;53.140;6.498;2023-03-20T00:21:04;7.30;99.90
52879;DHT22;38747;53.140;6.498;2023-03-20T00:23:29;7.30;99.90
52879;DHT22;38747;53.140;6.498;2023-03-20T00:25:56;7.30;99.90
52879;DHT22;38747;53.140;6.498;2023-03-20T00:28:29;7.30;99.90
52879;DHT22;38747;53.140;6.498;2023-03-20T00:30:59;7.30;99.90
52879;DHT22;38747;53.140;6.498;2023-03-20T00:33:25;7.30;99.90
52879;DHT22;38747;53.140;6.498;2023-03-20T00:35:51;7.30;99.90
52879;DHT22;38747;53.140;6.498;2023-03-20T00:38:17;7.30;99.90
52879;DHT22;38747;53.140;6.498;2023-03-20T00:40:42;7.30;99.90
52879;DHT22;38747;53.140;6.498;2023-03-20T00:43:10;7.30;99.90
52879;DHT22;38747;53.140;6.498;2023-03-20T00:45:37;7.30;99.90
52879;DHT22;38747;53.140;6.498;2023-03-20T00:48:03;7.30;99.90
52879;DHT22;38747;53.140;6.498;2023-03-20T00:50:30;7.30;99.90
52879;DHT22;38747;53.140;6.498;2023-03-20T00:52:57;7.30;99.90
52879;DHT22;38747;53.140;6.498;2023-03-20T00:55:24;7.30;99.90
52879;DHT22;38747;53.140;6.498;2023-03-20T00:57:59;7.30;99.90
52879;DHT22;38747;53.140;6.498;2023-03-20T01:02:54;7.30;99.90
52879;DHT22;38747;53.140;6.498;2023-03-20T01:05:20;7.30;99.90
52879;DHT22;38747;53.140;6.498;2023-03-20T01:07:46;7.30;99.90
52879;DHT22;38747;53.140;6.498;2023-03-20T01:10:12;7.30;99.90
52879;DHT22;38747;53.140;6.498;2023-03-20T01:12:42;7.30;99.90
52879;DHT22;38747;53.140;6.498;2023-03-20T01:15:17;7.30;99.90
52879;DHT22;38747;53.140;6.498;2023-03-20T01:17:43;7.30;99.90
52879;DHT22;38747;53.140;6.498;2023-03-20T01:20:32;7.30;99.90
52879;DHT22;38747;53.140;6.498;2023-03-20T01:22:57;7.30;99.90
52879;DHT22;38747;53.140;6.498;2023-03-20T01:25:23;7.30;99.90
52879;DHT22;38747;53.140;6.498;2023-03-20T01:27:51;7.30;99.90
52879;DHT22;38747;53.140;6.498;2023-03-20T01:30:24;7.30;99.90
52879;DHT22;38747;53.140;6.498;2023-03-20T01:32:50;7.30;99.90
52879;DHT22;38747;53.140;6.498;2023-03-20T01:35:21;7.30;99.90
52879;DHT22;38747;53.140;6.498;2023-03-20T01:37:49;7.30;99.90
52879;DHT22;38747;53.140;6.498;2023-03-20T01:40:27;7.30;99.90
52879;DHT22;38747;53.140;6.498;2023-03-20T01:42:55;7.30;99.90
52879;DHT22;38747;53.140;6.498;2023-03-20T01:45:25;7.30;99.90
52879;DHT22;38747;53.140;6.498;2023-03-20T01:47:51;7.30;99.90
52879;DHT22;38747;53.140;6.498;2023-03-20T01:52:50;7.30;99.90
52879;DHT22;38747;53.140;6.498;2023-03-20T01:55:17;7.30;99.90
52879;DHT22;38747;53.140;6.498;2023-03-20T01:57:43;7.30;99.90
52879;DHT22;38747;53.140;6.498;2023-03-20T02:00:11;7.30;99.90
52879;DHT22;38747;53.140;6.498;2023-03-20T02:02:39;7.30;99.90
52879;DHT22;38747;53.140;6.498;2023-03-20T02:05:09;7.30;99.90
52879;DHT22;38747;53.140;6.498;2023-03-20T02:07:37;7.30;99.90
52879;DHT22;38747;53.140;6.498;2023-03-20T02:10:09;7.30;99.90
52879;DHT22;38747;53.140;6.498;2023-03-20T02:12:35;7.30;99.90
52879;DHT22;38747;53.140;6.498;2023-03-20T02:15:02;7.30;99.90
52879;DHT22;38747;53.140;6.498;2023-03-20T02:17:27;7.30;99.90
52879;DHT22;38747;53.140;6.498;2023-03-20T02:25:44;7.40;99.90
52879;DHT22;38747;53.140;6.498;2023-03-20T02:28:29;7.40;99.90
52879;DHT22;38747;53.140;6.498;2023-03-20T02:39:59;7.40;99.90
52879;DHT22;38747;53.140;6.498;2023-03-20T02:42:51;7.40;99.90
52879;DHT22;38747;53.140;6.498;2023-03-20T02:49:14;7.40;99.90
52879;DHT22;38747;53.140;6.498;2023-03-20T02:51:40;7.40;99.90
52879;DHT22;38747;53.140;6.498;2023-03-20T02:54:38;7.40;99.90
52879;DHT22;38747;53.140;6.498;2023-03-20T02:59:57;7.40;99.90
52879;DHT22;38747;53.140;6.498;2023-03-20T03:02:34;7.40;99.90
52879;DHT22;38747;53.140;6.498;2023-03-20T03:05:09;7.40;99.90
52879;DHT22;38747;53.140;6.498;2023-03-20T03:07:37;7.40;99.90
52879;DHT22;38747;53.140;6.498;2023-03-20T03:10:11;7.40;99.90
52879;DHT22;38747;53.140;6.498;2023-03-20T03:12:42;7.40;99.90
52879;DHT22;38747;53.140;6.498;2023-03-20T03:15:16;7.50;99.90
52879;DHT22;38747;53.140;6.498;2023-03-20T03:17:46;7.40;99.90
52879;DHT22;38747;53.140;6.498;2023-03-20T03:20:29;7.40;99.90
52879;DHT22;38747;53.140;6.498;2023-03-20T03:22:57;7.40;99.90
52879;DHT22;38747;53.140;6.498;2023-03-20T03:25:26;7.50;99.90
52879;DHT22;38747;53.140;6.498;2023-03-20T03:30:30;7.50;99.90
52879;DHT22;38747;53.140;6.498;2023-03-20T03:35:38;7.40;99.90
52879;DHT22;38747;53.140;6.498;2023-03-20T03:38:30;7.40;99.90
52879;DHT22;38747;53.140;6.498;2023-03-20T03:49:07;7.50;99.90
52879;DHT22;38747;53.140;6.498;2023-03-20T03:51:37;7.50;99.90
52879;DHT22;38747;53.140;6.498;2023-03-20T03:54:14;7.40;99.90
52879;DHT22;38747;53.140;6.498;2023-03-20T03:56:42;7.50;99.90
52879;DHT22;38747;53.140;6.498;2023-03-20T03:59:12;7.50;99.90
52879;DHT22;38747;53.140;6.498;2023-03-20T04:01:39;7.50;99.90
52879;DHT22;38747;53.140;6.498;2023-03-20T04:04:09;7.50;99.90
52879;DHT22;38747;53.140;6.498;2023-03-20T04:06:36;7.50;99.90
52879;DHT22;38747;53.140;6.498;2023-03-20T04:09:02;7.50;99.90
52879;DHT22;38747;53.140;6.498;2023-03-20T04:11:27;7.50;99.90
52879;DHT22;38747;53.140;6.498;2023-03-20T04:13:54;7.50;99.90
52879;DHT22;38747;53.140;6.498;2023-03-20T04:16:22;7.50;99.90
52879;DHT22;38747;53.140;6.498;2023-03-20T04:18:49;7.50;99.90
52879;DHT22;38747;53.140;6.498;2023-03-20T04:21:15;7.50;99.90
52879;DHT22;38747;53.140;6.498;2023-03-20T04:23:41;7.50;99.90
52879;DHT22;38747;53.140;6.498;2023-03-20T04:26:07;7.50;99.90
52879;DHT22;38747;53.140;6.498;2023-03-20T04:28:32;7.50;99.90
52879;DHT22;38747;53.140;6.498;2023-03-20T04:30:59;7.50;99.90
52879;DHT22;38747;53.140;6.498;2023-03-20T04:33:26;7.50;99.90
52879;DHT22;38747;53.140;6.498;2023-03-20T04:35:52;7.50;99.90
52879;DHT22;38747;53.140;6.498;2023-03-20T04:38:18;7.50;99.90
52879;DHT22;38747;53.140;6.498;2023-03-20T04:40:45;7.50;99.90
52879;DHT22;38747;53.140;6.498;2023-03-20T04:43:12;7.50;99.90
52879;DHT22;38747;53.140;6.498;2023-03-20T04:45:38;7.50;99.90
52879;DHT22;38747;53.140;6.498;2023-03-20T04:48:05;7.50;99.90
52879;DHT22;38747;53.140;6.498;2023-03-20T04:50:30;7.50;99.90
52879;DHT22;38747;53.140;6.498;2023-03-20T04:52:56;7.50;99.90
52879;DHT22;38747;53.140;6.498;2023-03-20T04:55:22;7.50;99.90
52879;DHT22;38747;53.140;6.498;2023-03-20T04:57:48;7.50;99.90
52879;DHT22;38747;53.140;6.498;2023-03-20T05:00:14;7.50;99.90
52879;DHT22;38747;53.140;6.498;2023-03-20T05:02:40;7.50;99.90
52879;DHT22;38747;53.140;6.498;2023-03-20T05:05:06;7.50;99.90
52879;DHT22;38747;53.140;6.498;2023-03-20T05:07:32;7.50;99.90
52879;DHT22;38747;53.140;6.498;2023-03-20T05:09:58;7.50;99.90
52879;DHT22;38747;53.140;6.498;2023-03-20T05:12:24;7.50;99.90
52879;DHT22;38747;53.140;6.498;2023-03-20T05:14:52;7.50;99.90
52879;DHT22;38747;53.140;6.498;2023-03-20T05:17:20;7.40;99.90
52879;DHT22;38747;53.140;6.498;2023-03-20T05:19:46;7.50;99.90
52879;DHT22;38747;53.140;6.498;2023-03-20T05:22:12;7.50;99.90
52879;DHT22;38747;53.140;6.498;2023-03-20T05:24:38;7.40;99.90
52879;DHT22;38747;53.140;6.498;2023-03-20T05:27:03;7.40;99.90
52879;DHT22;38747;53.140;6.498;2023-03-20T05:29:29;7.40;99.90
52879;DHT22;38747;53.140;6.498;2023-03-20T05:31:55;7.40;99.90
52879;DHT22;38747;53.140;6.498;2023-03-20T05:34:21;7.40;99.90
52879;DHT22;38747;53.140;6.498;2023-03-20T05:36:46;7.40;99.90
52879;DHT22;38747;53.140;6.498;2023-03-20T05:39:12;7.40;99.90
52879;DHT22;38747;53.140;6.498;2023-03-20T05:41:38;7.40;99.90
52879;DHT22;38747;53.140;6.498;2023-03-20T05:44:04;7.40;99.90
52879;DHT22;38747;53.140;6.498;2023-03-20T05:46:30;7.40;99.90
52879;DHT22;38747;53.140;6.498;2023-03-20T05:48:56;7.40;99.90
52879;DHT22;38747;53.140;6.498;2023-03-20T05:51:21;7.40;99.90
52879;DHT22;38747;53.140;6.498;2023-03-20T05:53:47;7.40;99.90
52879;DHT22;38747;53.140;6.498;2023-03-20T05:56:13;7.40;99.90
52879;DHT22;38747;53.140;6.498;2023-03-20T05:58:38;7.40;99.90
52879;DHT22;38747;53.140;6.498;2023-03-20T06:01:04;7.40;99.90
52879;DHT22;38747;53.140;6.498;2023-03-20T06:03:30;7.40;99.90
52879;DHT22;38747;53.140;6.498;2023-03-20T06:05:56;7.40;99.90
52879;DHT22;38747;53.140;6.498;2023-03-20T06:08:21;7.40;99.90
52879;DHT22;38747;53.140;6.498;2023-03-20T06:10:49;7.40;99.90
52879;DHT22;38747;53.140;6.498;2023-03-20T06:13:16;7.40;99.90
52879;DHT22;38747;53.140;6.498;2023-03-20T06:15:41;7.50;99.90
52879;DHT22;38747;53.140;6.498;2023-03-20T06:18:07;7.40;99.90
52879;DHT22;38747;53.140;6.498;2023-03-20T06:20:32;7.50;99.90
52879;DHT22;38747;53.140;6.498;2023-03-20T06:22:58;7.50;99.90
52879;DHT22;38747;53.140;6.498;2023-03-20T06:25:24;7.50;99.90
52879;DHT22;38747;53.140;6.498;2023-03-20T06:27:49;7.50;99.90
52879;DHT22;38747;53.140;6.498;2023-03-20T06:30:15;7.50;99.90
52879;DHT22;38747;53.140;6.498;2023-03-20T06:32:41;7.50;99.90
52879;DHT22;38747;53.140;6.498;2023-03-20T06:35:07;7.60;99.90
52879;DHT22;38747;53.140;6.498;2023-03-20T06:37:34;7.60;99.90
52879;DHT22;38747;53.140;6.498;2023-03-20T06:40:01;7.60;99.90
52879;DHT22;38747;53.140;6.498;2023-03-20T06:42:28;7.70;99.90
52879;DHT22;38747;53.140;6.498;2023-03-20T06:44:53;7.60;99.90
52879;DHT22;38747;53.140;6.498;2023-03-20T06:47:19;7.70;99.90
52879;DHT22;38747;53.140;6.498;2023-03-20T06:49:45;7.70;99.90
52879;DHT22;38747;53.140;6.498;2023-03-20T06:52:15;7.70;99.90
52879;DHT22;38747;53.140;6.498;2023-03-20T06:54:42;7.70;99.90
52879;DHT22;38747;53.140;6.498;2023-03-20T06:57:07;7.70;99.90
52879;DHT22;38747;53.140;6.498;2023-03-20T06:59:33;7.80;99.90
52879;DHT22;38747;53.140;6.498;2023-03-20T07:01:58;7.80;99.90
52879;DHT22;38747;53.140;6.498;2023-03-20T07:04:25;7.80;99.90
52879;DHT22;38747;53.140;6.498;2023-03-20T07:06:50;7.90;99.90
52879;DHT22;38747;53.140;6.498;2023-03-20T07:09:16;7.90;99.90
52879;DHT22;38747;53.140;6.498;2023-03-20T07:11:42;7.90;99.90
52879;DHT22;38747;53.140;6.498;2023-03-20T07:14:09;7.90;99.90
52879;DHT22;38747;53.140;6.498;2023-03-20T07:16:35;7.90;99.90
52879;DHT22;38747;53.140;6.498;2023-03-20T07:19:01;8.00;99.90
52879;DHT22;38747;53.140;6.498;2023-03-20T07:21:27;8.00;99.90
52879;DHT22;38747;53.140;6.498;2023-03-20T07:23:53;8.10;99.90
52879;DHT22;38747;53.140;6.498;2023-03-20T07:26:19;8.10;99.90
52879;DHT22;38747;53.140;6.498;2023-03-20T07:28:45;8.20;99.90
52879;DHT22;38747;53.140;6.498;2023-03-20T07:31:19;8.20;99.90
52879;DHT22;38747;53.140;6.498;2023-03-20T07:33:45;8.30;99.90
52879;DHT22;38747;53.140;6.498;2023-03-20T07:36:11;8.30;99.90
52879;DHT22;38747;53.140;6.498;2023-03-20T07:38:36;8.40;99.90
52879;DHT22;38747;53.140;6.498;2023-03-20T07:41:02;8.50;99.90
52879;DHT22;38747;53.140;6.498;2023-03-20T07:43:27;8.50;99.90
52879;DHT22;38747;53.140;6.498;2023-03-20T07:45:53;8.60;99.90
52879;DHT22;38747;53.140;6.498;2023-03-20T07:48:19;8.60;99.90
52879;DHT22;38747;53.140;6.498;2023-03-20T07:50:44;8.60;99.90
52879;DHT22;38747;53.140;6.498;2023-03-20T07:53:10;8.60;99.90
52879;DHT22;38747;53.140;6.498;2023-03-20T07:55:36;8.70;99.90
52879;DHT22;38747;53.140;6.498;2023-03-20T07:58:01;8.70;99.90
52879;DHT22;38747;53.140;6.498;2023-03-20T08:00:27;8.70;99.90
52879;DHT22;38747;53.140;6.498;2023-03-20T08:02:53;8.70;99.90
52879;DHT22;38747;53.140;6.498;2023-03-20T08:05:21;8.80;99.90
52879;DHT22;38747;53.140;6.498;2023-03-20T08:07:47;8.80;99.90
52879;DHT22;38747;53.140;6.498;2023-03-20T08:10:12;8.90;99.90
52879;DHT22;38747;53.140;6.498;2023-03-20T08:12:38;8.90;99.90
52879;DHT22;38747;53.140;6.498;2023-03-20T08:15:04;9.00;99.90
52879;DHT22;38747;53.140;6.498;2023-03-20T08:17:30;9.10;99.90
52879;DHT22;38747;53.140;6.498;2023-03-20T08:19:55;9.10;99.90
52879;DHT22;38747;53.140;6.498;2023-03-20T08:22:21;9.10;99.90
52879;DHT22;38747;53.140;6.498;2023-03-20T08:24:47;9.10;99.90
52879;DHT22;38747;53.140;6.498;2023-03-20T08:27:12;9.10;99.90
52879;DHT22;38747;53.140;6.498;2023-03-20T08:29:38;9.10;99.90
52879;DHT22;38747;53.140;6.498;2023-03-20T08:32:04;9.10;99.90
52879;DHT22;38747;53.140;6.498;2023-03-20T08:34:30;9.20;99.90
52879;DHT22;38747;53.140;6.498;2023-03-20T08:36:56;9.10;99.90
52879;DHT22;38747;53.140;6.498;2023-03-20T08:39:22;9.20;99.90
52879;DHT22;38747;53.140;6.498;2023-03-20T08:41:48;9.20;99.90
52879;DHT22;38747;53.140;6.498;2023-03-20T08:44:14;9.20;99.90
52879;DHT22;38747;53.140;6.498;2023-03-20T08:46:40;9.20;99.90
52879;DHT22;38747;53.140;6.498;2023-03-20T08:49:08;9.20;99.90
52879;DHT22;38747;53.140;6.498;2023-03-20T08:51:33;9.30;99.90
52879;DHT22;38747;53.140;6.498;2023-03-20T08:53:59;9.30;99.90
52879;DHT22;38747;53.140;6.498;2023-03-20T08:56:25;9.30;99.90
52879;DHT22;38747;53.140;6.498;2023-03-20T08:58:50;9.40;99.90
52879;DHT22;38747;53.140;6.498;2023-03-20T09:01:18;9.40;99.90
52879;DHT22;38747;53.140;6.498;2023-03-20T09:03:44;9.40;99.90
52879;DHT22;38747;53.140;6.498;2023-03-20T09:06:10;9.50;99.90
52879;DHT22;38747;53.140;6.498;2023-03-20T09:08:36;9.50;99.90
52879;DHT22;38747;53.140;6.498;2023-03-20T09:11:04;9.60;99.90
52879;DHT22;38747;53.140;6.498;2023-03-20T09:13:30;9.60;99.90
52879;DHT22;38747;53.140;6.498;2023-03-20T09:15:56;9.70;99.90
52879;DHT22;38747;53.140;6.498;2023-03-20T09:18:23;9.80;99.90
52879;DHT22;38747;53.140;6.498;2023-03-20T09:20:48;9.90;99.90
52879;DHT22;38747;53.140;6.498;2023-03-20T09:23:14;10.00;99.90
52879;DHT22;38747;53.140;6.498;2023-03-20T09:25:40;10.00;99.90
52879;DHT22;38747;53.140;6.498;2023-03-20T09:28:06;10.20;99.90
52879;DHT22;38747;53.140;6.498;2023-03-20T09:30:32;10.30;99.90
52879;DHT22;38747;53.140;6.498;2023-03-20T09:32:57;10.30;99.90
52879;DHT22;38747;53.140;6.498;2023-03-20T09:35:23;10.30;99.90
52879;DHT22;38747;53.140;6.498;2023-03-20T09:37:48;10.30;99.90
52879;DHT22;38747;53.140;6.498;2023-03-20T09:46:18;10.50;99.90
52879;DHT22;38747;53.140;6.498;2023-03-20T09:49:01;10.50;99.90
52879;DHT22;38747;53.140;6.498;2023-03-20T09:51:50;10.50;99.90
52879;DHT22;38747;53.140;6.498;2023-03-20T09:54:34;10.50;99.90
52879;DHT22;38747;53.140;6.498;2023-03-20T09:57:02;10.60;99.90
52879;DHT22;38747;53.140;6.498;2023-03-20T09:59:28;10.60;99.90
52879;DHT22;38747;53.140;6.498;2023-03-20T10:02:10;10.70;99.90
52879;DHT22;38747;53.140;6.498;2023-03-20T10:04:38;10.70;99.90
52879;DHT22;38747;53.140;6.498;2023-03-20T10:07:04;10.80;99.90
52879;DHT22;38747;53.140;6.498;2023-03-20T10:09:31;10.80;99.90
52879;DHT22;38747;53.140;6.498;2023-03-20T10:17:47;10.90;99.90
52879;DHT22;38747;53.140;6.498;2023-03-20T10:20:29;10.90;99.90
52879;DHT22;38747;53.140;6.498;2023-03-20T10:23:27;10.80;99.90
52879;DHT22;38747;53.140;6.498;2023-03-20T10:36:54;10.70;99.90
52879;DHT22;38747;53.140;6.498;2023-03-20T10:42:36;10.80;99.90
52879;DHT22;38747;53.140;6.498;2023-03-20T10:47:46;11.00;99.90
52879;DHT22;38747;53.140;6.498;2023-03-20T10:50:31;11.00;99.90
52879;DHT22;38747;53.140;6.498;2023-03-20T10:52:59;11.20;99.90
52879;DHT22;38747;53.140;6.498;2023-03-20T10:55:30;11.20;99.90
52879;DHT22;38747;53.140;6.498;2023-03-20T10:58:19;11.30;99.90
52879;DHT22;38747;53.140;6.498;2023-03-20T11:00:46;11.30;99.90
52879;DHT22;38747;53.140;6.498;2023-03-20T11:03:23;11.30;99.90
52879;DHT22;38747;53.140;6.498;2023-03-20T11:06:17;11.30;99.90
52879;DHT22;38747;53.140;6.498;2023-03-20T11:08:45;11.20;99.90
52879;DHT22;38747;53.140;6.498;2023-03-20T11:11:12;11.20;99.90
52879;DHT22;38747;53.140;6.498;2023-03-20T11:13:41;11.10;99.90
52879;DHT22;38747;53.140;6.498;2023-03-20T11:18:40;10.90;99.90
52879;DHT22;38747;53.140;6.498;2023-03-20T11:21:11;10.90;99.90
52879;DHT22;38747;53.140;6.498;2023-03-20T11:23:38;10.90;99.90
52879;DHT22;38747;53.140;6.498;2023-03-20T11:26:11;10.90;99.90
52879;DHT22;38747;53.140;6.498;2023-03-20T11:28:41;11.00;99.90
52879;DHT22;38747;53.140;6.498;2023-03-20T11:31:18;10.90;99.90
52879;DHT22;38747;53.140;6.498;2023-03-20T11:34:00;10.80;99.90
52879;DHT22;38747;53.140;6.498;2023-03-20T11:36:33;10.70;99.90
52879;DHT22;38747;53.140;6.498;2023-03-20T11:39:25;10.60;99.90
52879;DHT22;38747;53.140;6.498;2023-03-20T11:41:53;10.60;99.90
52879;DHT22;38747;53.140;6.498;2023-03-20T11:49:31;10.50;99.90
52879;DHT22;38747;53.140;6.498;2023-03-20T11:52:09;10.50;99.90
52879;DHT22;38747;53.140;6.498;2023-03-20T11:54:36;10.50;99.90
52879;DHT22;38747;53.140;6.498;2023-03-20T11:57:02;10.40;99.90
52879;DHT22;38747;53.140;6.498;2023-03-20T11:59:35;10.30;99.90
52879;DHT22;38747;53.140;6.498;2023-03-20T12:02:03;10.30;99.90
52879;DHT22;38747;53.140;6.498;2023-03-20T12:04:36;10.20;99.90
52879;DHT22;38747;53.140;6.498;2023-03-20T12:07:17;10.20;99.90
52879;DHT22;38747;53.140;6.498;2023-03-20T12:15:38;10.20;99.90
52879;DHT22;38747;53.140;6.498;2023-03-20T12:21:08;10.30;99.90
52879;DHT22;38747;53.140;6.498;2023-03-20T12:26:15;10.30;99.90
52879;DHT22;38747;53.140;6.498;2023-03-20T12:33:58;10.40;99.90
52879;DHT22;38747;53.140;6.498;2023-03-20T12:36:37;10.40;99.90
52879;DHT22;38747;53.140;6.498;2023-03-20T12:39:14;10.30;99.90
52879;DHT22;38747;53.140;6.498;2023-03-20T12:42:04;10.40;99.90
52879;DHT22;38747;53.140;6.498;2023-03-20T12:44:50;10.30;99.90
52879;DHT22;38747;53.140;6.498;2023-03-20T12:58:47;10.10;99.90
52879;DHT22;38747;53.140;6.498;2023-03-20T13:01:21;10.10;99.90
52879;DHT22;38747;53.140;6.498;2023-03-20T13:12:37;9.80;99.90
52879;DHT22;38747;53.140;6.498;2023-03-20T13:18:03;9.70;99.90
52879;DHT22;38747;53.140;6.498;2023-03-20T13:20:33;9.60;99.90
52879;DHT22;38747;53.140;6.498;2023-03-20T13:28:37;9.60;99.90
52879;DHT22;38747;53.140;6.498;2023-03-20T13:39:45;9.40;99.90
52879;DHT22;38747;53.140;6.498;2023-03-20T13:42:21;9.50;99.90
52879;DHT22;38747;53.140;6.498;2023-03-20T13:44:55;9.50;99.90
52879;DHT22;38747;53.140;6.498;2023-03-20T13:47:32;9.50;99.90
52879;DHT22;38747;53.140;6.498;2023-03-20T13:52:43;9.50;99.90
52879;DHT22;38747;53.140;6.498;2023-03-20T13:55:31;9.40;99.90
52879;DHT22;38747;53.140;6.498;2023-03-20T14:03:30;9.40;99.90
52879;DHT22;38747;53.140;6.498;2023-03-20T14:05:57;9.40;99.90
52879;DHT22;38747;53.140;6.498;2023-03-20T14:14:01;9.30;99.90
52879;DHT22;38747;53.140;6.498;2023-03-20T14:16:28;9.20;99.90
52879;DHT22;38747;53.140;6.498;2023-03-20T14:21:33;9.10;99.90
52879;DHT22;38747;53.140;6.498;2023-03-20T14:24:05;9.00;99.90
52879;DHT22;38747;53.140;6.498;2023-03-20T14:26:37;9.10;99.90
52879;DHT22;38747;53.140;6.498;2023-03-20T14:31:37;9.00;99.90
52879;DHT22;38747;53.140;6.498;2023-03-20T14:36:58;9.00;99.90
52879;DHT22;38747;53.140;6.498;2023-03-20T14:40:05;9.10;99.90
52879;DHT22;38747;53.140;6.498;2023-03-20T14:45:50;9.10;99.90
52879;DHT22;38747;53.140;6.498;2023-03-20T14:48:40;9.00;99.90
52879;DHT22;38747;53.140;6.498;2023-03-20T14:51:19;8.90;99.90
52879;DHT22;38747;53.140;6.498;2023-03-20T14:54:21;8.90;99.90
52879;DHT22;38747;53.140;6.498;2023-03-20T14:56:38;8.80;99.90
52879;DHT22;38747;53.140;6.498;2023-03-20T14:59:04;8.90;99.90
52879;DHT22;38747;53.140;6.498;2023-03-20T15:01:45;8.80;99.90
52879;DHT22;38747;53.140;6.498;2023-03-20T15:04:30;8.80;99.90
52879;DHT22;38747;53.140;6.498;2023-03-20T15:07:02;8.80;99.90
52879;DHT22;38747;53.140;6.498;2023-03-20T15:09:31;8.80;99.90
52879;DHT22;38747;53.140;6.498;2023-03-20T15:11:59;8.80;99.90
52879;DHT22;38747;53.140;6.498;2023-03-20T15:17:19;8.80;99.90
52879;DHT22;38747;53.140;6.498;2023-03-20T15:19:45;8.80;99.90
52879;DHT22;38747;53.140;6.498;2023-03-20T15:22:19;8.80;99.90
52879;DHT22;38747;53.140;6.498;2023-03-20T15:24:53;8.80;99.90
52879;DHT22;38747;53.140;6.498;2023-03-20T15:27:20;8.80;99.90
52879;DHT22;38747;53.140;6.498;2023-03-20T15:29:52;8.80;99.90
52879;DHT22;38747;53.140;6.498;2023-03-20T15:32:19;8.90;99.90
52879;DHT22;38747;53.140;6.498;2023-03-20T15:34:46;8.90;99.90
52879;DHT22;38747;53.140;6.498;2023-03-20T15:37:15;8.90;99.90
52879;DHT22;38747;53.140;6.498;2023-03-20T15:39:44;8.90;99.90
52879;DHT22;38747;53.140;6.498;2023-03-20T15:42:20;8.90;99.90
52879;DHT22;38747;53.140;6.498;2023-03-20T15:44:52;8.80;99.90
52879;DHT22;38747;53.140;6.498;2023-03-20T15:47:20;8.80;99.90
52879;DHT22;38747;53.140;6.498;2023-03-20T15:49:55;8.80;99.90
52879;DHT22;38747;53.140;6.498;2023-03-20T15:52:44;8.90;99.90
52879;DHT22;38747;53.140;6.498;2023-03-20T15:55:19;8.80;99.90
52879;DHT22;38747;53.140;6.498;2023-03-20T15:57:46;8.80;99.90
52879;DHT22;38747;53.140;6.498;2023-03-20T16:00:16;8.80;99.90
52879;DHT22;38747;53.140;6.498;2023-03-20T16:02:47;8.80;99.90
52879;DHT22;38747;53.140;6.498;2023-03-20T16:05:14;8.80;99.90
52879;DHT22;38747;53.140;6.498;2023-03-20T16:07:40;8.80;99.90
52879;DHT22;38747;53.140;6.498;2023-03-20T16:10:29;8.80;99.90
52879;DHT22;38747;53.140;6.498;2023-03-20T16:12:56;8.80;99.90
52879;DHT22;38747;53.140;6.498;2023-03-20T16:15:24;8.80;99.90
52879;DHT22;38747;53.140;6.498;2023-03-20T16:17:56;8.80;99.90
52879;DHT22;38747;53.140;6.498;2023-03-20T16:20:23;8.80;99.90
52879;DHT22;38747;53.140;6.498;2023-03-20T16:22:51;8.80;99.90
52879;DHT22;38747;53.140;6.498;2023-03-20T16:25:19;8.80;99.90
52879;DHT22;38747;53.140;6.498;2023-03-20T16:27:46;8.80;99.90
52879;DHT22;38747;53.140;6.498;2023-03-20T16:30:18;8.80;99.90
52879;DHT22;38747;53.140;6.498;2023-03-20T16:32:46;8.80;99.90
52879;DHT22;38747;53.140;6.498;2023-03-20T16:37:53;8.80;99.90
52879;DHT22;38747;53.140;6.498;2023-03-20T16:40:21;8.70;99.90
52879;DHT22;38747;53.140;6.498;2023-03-20T16:42:48;8.80;99.90
52879;DHT22;38747;53.140;6.498;2023-03-20T16:45:27;8.80;99.90
52879;DHT22;38747;53.140;6.498;2023-03-20T16:48:19;8.70;99.90
52879;DHT22;38747;53.140;6.498;2023-03-20T16:50:46;8.70;99.90
52879;DHT22;38747;53.140;6.498;2023-03-20T16:53:18;8.80;99.90
52879;DHT22;38747;53.140;6.498;2023-03-20T16:55:51;8.80;99.90
52879;DHT22;38747;53.140;6.498;2023-03-20T16:58:22;8.80;99.90
52879;DHT22;38747;53.140;6.498;2023-03-20T17:00:57;8.70;99.90
52879;DHT22;38747;53.140;6.498;2023-03-20T17:03:26;8.70;99.90
52879;DHT22;38747;53.140;6.498;2023-03-20T17:05:54;8.80;99.90
52879;DHT22;38747;53.140;6.498;2023-03-20T17:08:39;8.80;99.90
52879;DHT22;38747;53.140;6.498;2023-03-20T17:11:11;8.70;99.90
52879;DHT22;38747;53.140;6.498;2023-03-20T17:13:38;8.70;99.90
52879;DHT22;38747;53.140;6.498;2023-03-20T17:16:04;8.70;99.90
52879;DHT22;38747;53.140;6.498;2023-03-20T17:18:30;8.70;99.90
52879;DHT22;38747;53.140;6.498;2023-03-20T17:20:56;8.70;99.90
52879;DHT22;38747;53.140;6.498;2023-03-20T17:23:22;8.70;99.90
52879;DHT22;38747;53.140;6.498;2023-03-20T17:25:49;8.70;99.90
52879;DHT22;38747;53.140;6.498;2023-03-20T17:28:29;8.70;99.90
52879;DHT22;38747;53.140;6.498;2023-03-20T17:30:55;8.60;99.90
52879;DHT22;38747;53.140;6.498;2023-03-20T17:33:21;8.70;99.90
52879;DHT22;38747;53.140;6.498;2023-03-20T17:35:47;8.60;99.90
52879;DHT22;38747;53.140;6.498;2023-03-20T17:38:19;8.70;99.90
52879;DHT22;38747;53.140;6.498;2023-03-20T17:40:46;8.60;99.90
52879;DHT22;38747;53.140;6.498;2023-03-20T17:43:13;8.70;99.90
52879;DHT22;38747;53.140;6.498;2023-03-20T17:45:40;8.60;99.90
52879;DHT22;38747;53.140;6.498;2023-03-20T17:48:12;8.70;99.90
52879;DHT22;38747;53.140;6.498;2023-03-20T17:50:41;8.60;99.90
52879;DHT22;38747;53.140;6.498;2023-03-20T17:53:16;8.70;99.90
52879;DHT22;38747;53.140;6.498;2023-03-20T17:55:42;8.60;99.90
52879;DHT22;38747;53.140;6.498;2023-03-20T17:58:19;8.70;99.90
52879;DHT22;38747;53.140;6.498;2023-03-20T18:00:48;8.60;99.90
52879;DHT22;38747;53.140;6.498;2023-03-20T18:03:13;8.70;99.90
52879;DHT22;38747;53.140;6.498;2023-03-20T18:05:41;8.70;99.90
52879;DHT22;38747;53.140;6.498;2023-03-20T18:08:15;8.70;99.90
52879;DHT22;38747;53.140;6.498;2023-03-20T18:10:44;8.70;99.90
52879;DHT22;38747;53.140;6.498;2023-03-20T18:13:10;8.60;99.90
52879;DHT22;38747;53.140;6.498;2023-03-20T18:15:36;8.60;99.90
52879;DHT22;38747;53.140;6.498;2023-03-20T18:18:05;8.60;99.90
52879;DHT22;38747;53.140;6.498;2023-03-20T18:20:33;8.70;99.90
52879;DHT22;38747;53.140;6.498;2023-03-20T18:22:59;8.60;99.90
52879;DHT22;38747;53.140;6.498;2023-03-20T18:25:24;8.70;99.90
52879;DHT22;38747;53.140;6.498;2023-03-20T18:27:55;8.70;99.90
52879;DHT22;38747;53.140;6.498;2023-03-20T18:30:23;8.60;99.90
52879;DHT22;38747;53.140;6.498;2023-03-20T18:32:49;8.60;99.90
52879;DHT22;38747;53.140;6.498;2023-03-20T18:35:15;8.60;99.90
52879;DHT22;38747;53.140;6.498;2023-03-20T18:37:41;8.60;99.90
52879;DHT22;38747;53.140;6.498;2023-03-20T18:40:31;8.60;99.90